createdAt,value
2022-08-05T00:00:46.470Z,3.67
2022-08-05T00:03:18.014Z,3.58
2022-08-05T00:06:05.446Z,5.70
2022-08-05T00:08:36.279Z,4.00
2022-08-05T00:11:23.911Z,5.00
2022-08-05T00:13:56.916Z,5.00
2022-08-05T00:16:36.150Z,4.55
2022-08-05T00:19:05.284Z,5.07
2022-08-05T00:21:35.609Z,5.38
2022-08-05T00:24:10.414Z,5.10
2022-08-05T00:26:39.458Z,4.85
2022-08-05T00:29:19.044Z,5.47
2022-08-05T00:31:53.400Z,5.22
2022-08-05T00:34:56.278Z,5.47
2022-08-05T00:37:14.233Z,5.45
2022-08-05T00:39:58.566Z,5.38
2022-08-05T00:42:35.237Z,5.65
2022-08-05T00:45:05.701Z,6.95
2022-08-05T00:47:56.570Z,5.82
2022-08-05T00:50:25.844Z,5.72
2022-08-05T00:52:55.529Z,5.60
2022-08-05T00:55:34.020Z,5.50
2022-08-05T00:58:11.568Z,6.55
2022-08-05T01:00:42.006Z,5.45
2022-08-05T01:03:22.395Z,5.90
2022-08-05T01:05:51.500Z,5.50
2022-08-05T01:08:40.576Z,5.18
2022-08-05T01:11:14.024Z,5.80
2022-08-05T01:14:00.665Z,6.15
2022-08-05T01:16:35.504Z,5.82
2022-08-05T01:19:14.197Z,6.32
2022-08-05T01:21:58.248Z,6.93
2022-08-05T01:24:48.498Z,6.72
2022-08-05T01:27:34.000Z,6.82
2022-08-05T01:30:05.654Z,6.22
2022-08-05T01:32:48.447Z,6.40
2022-08-05T01:35:51.806Z,6.28
2022-08-05T01:38:09.525Z,5.97
2022-08-05T01:40:55.166Z,6.05
2022-08-05T01:43:24.838Z,6.05
2022-08-05T01:45:57.129Z,6.72
2022-08-05T01:48:27.587Z,6.25
2022-08-05T01:50:58.125Z,6.07
2022-08-05T01:53:58.347Z,6.10
2022-08-05T01:58:11.341Z,6.65
2022-08-05T01:59:15.903Z,6.35
2022-08-05T02:01:49.410Z,6.57
2022-08-05T02:04:20.796Z,6.38
2022-08-05T02:06:49.418Z,5.95
2022-08-05T02:09:20.632Z,5.78
2022-08-05T02:11:52.859Z,6.43
2022-08-05T02:14:29.524Z,6.43
2022-08-05T02:17:07.654Z,7.13
2022-08-05T02:19:50.679Z,5.88
2022-08-05T02:22:26.775Z,6.05
2022-08-05T02:25:02.449Z,6.32
2022-08-05T02:27:59.289Z,6.10
2022-08-05T02:30:23.519Z,5.72
2022-08-05T02:32:58.880Z,6.25
2022-08-05T02:35:33.232Z,6.70
2022-08-05T02:38:09.362Z,5.20
2022-08-05T02:40:38.462Z,5.28
2022-08-05T02:43:08.189Z,6.80
2022-08-05T02:45:52.878Z,5.30
2022-08-05T02:48:29.186Z,6.15
2022-08-05T02:51:00.973Z,5.22
2022-08-05T02:53:39.212Z,5.32
2022-08-05T02:56:11.216Z,5.97
2022-08-05T02:58:45.357Z,5.55
2022-08-05T03:01:24.054Z,5.30
2022-08-05T03:04:02.907Z,6.28
2022-08-05T03:06:56.032Z,5.45
2022-08-05T03:09:36.290Z,5.72
2022-08-05T03:12:07.853Z,5.53
2022-08-05T03:14:45.802Z,6.32
2022-08-05T03:17:14.400Z,6.30
2022-08-05T03:19:45.795Z,7.63
2022-08-05T03:22:18.901Z,8.05
2022-08-05T03:25:11.787Z,7.47
2022-08-05T03:27:59.785Z,7.65
2022-08-05T03:30:34.060Z,6.80
2022-08-05T03:33:04.239Z,7.25
2022-08-05T03:35:41.079Z,6.45
2022-08-05T03:38:11.647Z,7.50
2022-08-05T03:40:45.391Z,8.02
2022-08-05T03:44:09.025Z,7.05
2022-08-05T03:46:08.305Z,7.25
2022-08-05T03:48:36.730Z,7.85
2022-08-05T03:52:38.910Z,8.10
2022-08-05T03:55:53.544Z,7.95
2022-08-05T03:56:59.002Z,7.53
2022-08-05T03:59:47.343Z,8.27
2022-08-05T04:02:38.843Z,8.25
2022-08-05T04:05:14.265Z,9.40
2022-08-05T04:07:52.867Z,10.00
2022-08-05T04:10:30.832Z,10.02
2022-08-05T04:13:04.299Z,11.07
2022-08-05T04:15:32.962Z,9.40
2022-08-05T04:18:03.323Z,9.70
2022-08-05T04:20:31.453Z,9.35
2022-08-05T04:23:01.310Z,9.93
2022-08-05T04:25:56.518Z,9.90
2022-08-05T04:28:17.513Z,9.95
2022-08-05T04:30:45.684Z,10.93
2022-08-05T04:33:14.249Z,9.65
2022-08-05T04:36:15.759Z,9.35
2022-08-05T04:38:39.479Z,9.88
2022-08-05T04:41:10.043Z,10.45
2022-08-05T04:43:40.567Z,9.23
2022-08-05T04:46:14.910Z,9.70
2022-08-05T04:48:58.777Z,9.77
2022-08-05T04:51:30.613Z,10.48
2022-08-05T04:54:01.345Z,9.60
2022-08-05T04:56:34.280Z,10.57
2022-08-05T04:59:21.406Z,10.20
2022-08-05T05:02:08.306Z,11.40
2022-08-05T05:04:44.186Z,10.70
2022-08-05T05:07:17.185Z,11.38
2022-08-05T05:09:46.941Z,11.43
2022-08-05T05:12:15.079Z,11.77
2022-08-05T05:14:50.581Z,13.20
2022-08-05T05:17:23.765Z,12.48
2022-08-05T05:19:54.553Z,13.50
2022-08-05T05:22:26.363Z,13.48
2022-08-05T05:24:59.948Z,12.63
2022-08-05T05:27:41.150Z,12.70
2022-08-05T05:30:29.664Z,12.70
2022-08-05T05:33:09.041Z,12.70
2022-08-05T05:35:45.061Z,11.75
2022-08-05T05:38:14.247Z,14.30
2022-08-05T05:40:48.103Z,13.52
2022-08-05T05:43:22.135Z,12.82
2022-08-05T05:46:13.774Z,12.00
2022-08-05T05:48:45.944Z,12.77
2022-08-05T05:51:23.384Z,14.27
2022-08-05T05:53:58.079Z,14.05
2022-08-05T05:56:32.326Z,14.10
2022-08-05T05:59:05.098Z,14.95
2022-08-05T06:01:37.980Z,14.85
2022-08-05T06:04:11.366Z,13.52
2022-08-05T06:06:41.670Z,13.15
2022-08-05T06:09:17.063Z,14.95
2022-08-05T06:12:01.746Z,15.00
2022-08-05T06:14:31.232Z,14.55
2022-08-05T06:17:02.238Z,15.48
2022-08-05T06:19:57.232Z,14.05
2022-08-05T06:22:29.692Z,14.77
2022-08-05T06:24:58.465Z,16.42
2022-08-05T06:28:09.271Z,18.40
2022-08-05T06:30:19.982Z,17.73
2022-08-05T06:32:50.735Z,18.52
2022-08-05T06:36:02.969Z,17.48
2022-08-05T06:38:11.696Z,13.63
2022-08-05T06:40:42.050Z,16.70
2022-08-05T06:43:51.632Z,17.95
2022-08-05T06:46:04.059Z,18.27
2022-08-05T06:48:52.647Z,16.98
2022-08-05T06:51:29.062Z,18.10
2022-08-05T06:53:58.948Z,19.50
2022-08-05T06:56:27.350Z,19.05
2022-08-05T06:58:57.253Z,19.25
2022-08-05T07:01:31.963Z,19.40
2022-08-05T07:04:03.004Z,21.45
2022-08-05T07:06:31.995Z,21.48
2022-08-05T07:09:04.265Z,21.17
2022-08-05T07:11:36.940Z,22.52
2022-08-05T07:14:29.565Z,23.67
2022-08-05T07:17:59.179Z,23.08
2022-08-05T07:22:38.926Z,24.13
2022-08-05T07:25:22.779Z,23.00
2022-08-05T07:28:03.745Z,24.52
2022-08-05T07:30:38.703Z,24.33
2022-08-05T07:33:15.482Z,24.42
2022-08-05T07:36:04.526Z,25.67
2022-08-05T07:38:42.594Z,25.13
2022-08-05T07:41:34.958Z,26.73
2022-08-05T07:44:05.971Z,27.08
2022-08-05T07:46:48.317Z,27.17
2022-08-05T07:49:18.400Z,25.70
2022-08-05T07:51:53.103Z,25.58
2022-08-05T07:54:31.598Z,27.90
2022-08-05T07:57:22.579Z,28.13
2022-08-05T07:59:50.737Z,27.38
2022-08-05T08:02:26.486Z,28.73
2022-08-05T08:04:59.520Z,26.58
2022-08-05T08:07:29.378Z,30.50
2022-08-05T08:10:08.894Z,29.73
2022-08-05T08:12:49.387Z,31.15
2022-08-05T08:15:18.277Z,29.65
2022-08-05T08:18:13.988Z,28.15
2022-08-05T08:21:03.349Z,28.23
2022-08-05T08:24:01.969Z,29.65
2022-08-05T08:26:26.890Z,32.75
2022-08-05T08:29:21.735Z,31.45
2022-08-05T08:31:47.459Z,30.38
2022-08-05T08:34:18.638Z,31.00
2022-08-05T08:36:54.701Z,31.92
2022-08-05T08:39:26.652Z,32.55
2022-08-05T08:41:59.646Z,35.33
2022-08-05T08:45:21.057Z,32.95
2022-08-05T08:48:07.713Z,35.38
2022-08-05T08:50:30.623Z,36.20
2022-08-05T08:53:07.946Z,34.85
2022-08-05T08:56:03.948Z,34.67
2022-08-05T08:58:43.332Z,35.33
2022-08-05T09:01:18.340Z,35.38
2022-08-05T09:03:54.295Z,34.15
2022-08-05T09:06:28.144Z,32.60
2022-08-05T09:08:58.909Z,35.22
2022-08-05T09:11:52.504Z,34.92
2022-08-05T09:14:58.480Z,36.92
2022-08-05T09:17:08.138Z,37.92
2022-08-05T09:20:01.795Z,40.00
2022-08-05T09:22:32.100Z,36.42
2022-08-05T09:25:13.666Z,38.25
2022-08-05T09:28:03.982Z,40.33
2022-08-05T09:30:35.534Z,42.70
2022-08-05T09:33:07.286Z,40.67
2022-08-05T09:35:36.179Z,41.25
2022-08-05T09:38:12.632Z,39.95
2022-08-05T09:40:52.229Z,40.47
2022-08-05T09:43:40.514Z,41.13
2022-08-05T09:46:27.234Z,41.92
2022-08-05T09:49:07.682Z,39.47
2022-08-05T09:51:49.731Z,38.13
2022-08-05T09:54:31.994Z,36.20
2022-08-05T09:57:01.664Z,36.78
2022-08-05T09:59:34.992Z,39.42
2022-08-05T10:02:05.455Z,37.78
2022-08-05T10:04:38.463Z,37.65
2022-08-05T10:07:19.579Z,32.53
2022-08-05T10:10:14.212Z,33.97
2022-08-05T10:12:49.273Z,34.17
2022-08-05T10:15:23.966Z,34.42
2022-08-05T10:18:12.068Z,34.47
2022-08-05T10:20:44.116Z,35.20
2022-08-05T10:23:34.073Z,33.80
2022-08-05T10:26:06.978Z,33.53
2022-08-05T10:28:36.762Z,33.63
2022-08-05T10:32:53.303Z,35.60
2022-08-05T10:33:54.746Z,32.15
2022-08-05T10:36:23.606Z,34.78
2022-08-05T10:39:01.464Z,31.38
2022-08-05T10:41:48.118Z,31.08
2022-08-05T10:44:19.891Z,25.60
2022-08-05T10:46:50.869Z,24.77
2022-08-05T10:49:26.763Z,21.48
2022-08-05T10:52:00.320Z,20.10
2022-08-05T10:55:03.021Z,19.08
2022-08-05T10:57:34.301Z,19.73
2022-08-05T11:00:19.229Z,19.42
2022-08-05T11:03:24.810Z,18.35
2022-08-05T11:06:06.051Z,17.90
2022-08-05T11:08:39.162Z,17.13
2022-08-05T11:11:52.359Z,15.40
2022-08-05T11:14:57.533Z,15.32
2022-08-05T11:17:59.555Z,12.45
2022-08-05T11:20:39.188Z,12.00
2022-08-05T11:24:02.526Z,12.93
2022-08-05T11:26:28.857Z,10.38
2022-08-05T11:29:13.466Z,10.75
2022-08-05T11:31:57.571Z,10.82
2022-08-05T11:34:50.918Z,11.27
2022-08-05T11:38:30.567Z,10.65
2022-08-05T11:41:03.444Z,9.32
2022-08-05T11:44:06.214Z,8.43
2022-08-05T11:46:34.896Z,7.55
2022-08-05T11:49:08.007Z,7.28
2022-08-05T11:51:44.616Z,6.78
2022-08-05T11:54:33.654Z,6.85
2022-08-05T11:57:07.942Z,7.05
2022-08-05T11:59:50.189Z,6.90
2022-08-05T12:02:24.486Z,4.43
2022-08-05T12:05:06.730Z,2.90
2022-08-05T12:08:07.463Z,2.10
2022-08-05T12:10:38.388Z,1.90
2022-08-05T12:13:27.725Z,2.17
2022-08-05T12:16:14.763Z,1.83
2022-08-05T12:18:49.114Z,2.42
2022-08-05T12:21:25.015Z,2.17
2022-08-05T12:24:00.096Z,1.48
2022-08-05T12:26:33.993Z,1.25
2022-08-05T12:29:03.178Z,1.00
2022-08-05T12:31:42.434Z,1.00
2022-08-05T12:34:21.096Z,0.85
2022-08-05T12:36:53.188Z,1.02
2022-08-05T12:39:22.002Z,0.70
2022-08-05T12:41:58.043Z,0.80
2022-08-05T12:44:33.118Z,0.77
2022-08-05T12:47:02.835Z,0.70
2022-08-05T12:50:04.720Z,0.68
2022-08-05T12:52:39.702Z,0.80
2022-08-05T12:55:22.127Z,0.90
2022-08-05T12:58:48.635Z,1.08
2022-08-05T13:02:02.217Z,0.98
2022-08-05T13:03:33.107Z,0.82
2022-08-05T13:06:02.095Z,2.10
2022-08-05T13:08:32.987Z,0.80
2022-08-05T13:11:02.143Z,1.15
2022-08-05T13:14:06.090Z,1.05
2022-08-05T13:16:24.947Z,1.40
2022-08-05T13:18:57.740Z,1.15
2022-08-05T13:21:28.374Z,0.90
2022-08-05T13:24:08.960Z,1.05
2022-08-05T13:26:37.358Z,1.55
2022-08-05T13:29:05.654Z,1.58
2022-08-05T13:32:05.143Z,1.10
2022-08-05T13:34:26.069Z,1.27
2022-08-05T13:36:54.892Z,1.63
2022-08-05T13:40:14.160Z,1.52
2022-08-05T13:42:14.055Z,1.50
2022-08-05T13:44:45.354Z,1.77
2022-08-05T13:47:34.998Z,1.40
2022-08-05T13:50:04.512Z,1.38
2022-08-05T13:52:35.189Z,1.67
2022-08-05T13:55:07.741Z,1.50
2022-08-05T13:57:51.235Z,1.50
2022-08-05T14:00:27.088Z,1.77
2022-08-05T14:02:56.983Z,1.75
2022-08-05T14:05:29.410Z,1.23
2022-08-05T14:08:20.738Z,1.63
2022-08-05T14:11:03.205Z,1.17
2022-08-05T14:13:48.193Z,1.70
2022-08-05T14:16:19.262Z,1.67
2022-08-05T14:18:47.492Z,1.88
2022-08-05T14:22:08.321Z,1.30
2022-08-05T14:24:04.241Z,1.75
2022-08-05T14:26:38.625Z,1.42
2022-08-05T14:29:16.824Z,1.95
2022-08-05T14:32:03.520Z,1.65
2022-08-05T14:34:35.224Z,1.52
2022-08-05T14:37:04.637Z,1.70
2022-08-05T14:39:50.294Z,1.85
2022-08-05T14:42:23.187Z,1.40
2022-08-05T14:44:53.613Z,1.63
2022-08-05T14:48:03.103Z,1.67
2022-08-05T14:50:19.123Z,1.42
2022-08-05T14:52:53.563Z,1.45
2022-08-05T14:55:26.077Z,1.45
2022-08-05T14:58:12.032Z,2.00
2022-08-05T15:00:59.182Z,1.40
2022-08-05T15:03:33.157Z,1.33
2022-08-05T15:06:07.313Z,1.63
2022-08-05T15:08:59.488Z,2.13
2022-08-05T15:11:53.005Z,1.20
2022-08-05T15:14:33.436Z,1.50
2022-08-05T15:17:04.288Z,1.38
2022-08-05T15:19:33.019Z,1.40
2022-08-05T15:22:01.985Z,1.60
2022-08-05T15:24:30.372Z,2.03
2022-08-05T15:26:59.027Z,1.95
2022-08-05T15:29:30.038Z,1.38
2022-08-05T15:32:03.303Z,1.90
2022-08-05T15:34:34.455Z,1.25
2022-08-05T15:37:07.021Z,1.60
2022-08-05T15:40:59.161Z,1.65
2022-08-05T15:42:55.786Z,1.30
2022-08-05T15:45:38.123Z,1.73
2022-08-05T15:48:07.213Z,1.90
2022-08-05T15:50:35.816Z,1.60
2022-08-05T15:53:06.297Z,1.88
2022-08-05T15:56:02.090Z,2.00
2022-08-05T15:58:25.227Z,2.05
2022-08-05T16:03:44.441Z,1.60
2022-08-05T16:06:20.377Z,1.50
2022-08-05T16:08:51.043Z,2.03
2022-08-05T16:11:39.962Z,2.22
2022-08-05T16:14:09.793Z,1.83
2022-08-05T16:16:39.133Z,1.88
2022-08-05T16:19:07.417Z,2.30
2022-08-05T16:21:58.818Z,1.85
2022-08-05T16:24:41.164Z,2.13
2022-08-05T16:27:15.887Z,2.00
2022-08-05T16:29:50.013Z,2.05
2022-08-05T16:32:23.340Z,1.80
2022-08-05T16:34:57.278Z,2.33
2022-08-05T16:38:15.574Z,1.98
2022-08-05T16:40:26.528Z,2.30
2022-08-05T16:42:58.081Z,2.40
2022-08-05T16:46:03.701Z,2.10
2022-08-05T16:48:25.271Z,2.17
2022-08-05T16:50:54.612Z,2.25
2022-08-05T16:53:32.215Z,2.25
2022-08-05T16:56:12.264Z,2.70
2022-08-05T16:58:40.710Z,2.70
2022-08-05T17:01:10.509Z,2.38
2022-08-05T17:03:40.196Z,3.50
2022-08-05T17:06:09.216Z,2.67
2022-08-05T17:08:53.405Z,3.97
2022-08-05T17:11:23.502Z,2.85
2022-08-05T17:14:00.420Z,2.28
2022-08-05T17:16:36.516Z,2.30
2022-08-05T17:19:07.759Z,2.05
2022-08-05T17:21:39.734Z,1.63
2022-08-05T17:24:28.008Z,1.50
2022-08-05T17:26:57.788Z,1.95
2022-08-05T17:29:32.832Z,1.48
2022-08-05T17:32:08.465Z,1.30
2022-08-05T17:34:42.034Z,1.35
2022-08-05T17:37:36.123Z,1.83
2022-08-05T17:40:00.028Z,1.27
2022-08-05T17:42:31.872Z,1.02
2022-08-05T17:45:00.678Z,1.40
2022-08-05T17:47:49.923Z,1.00
2022-08-05T17:50:28.934Z,1.20
2022-08-05T17:53:00.907Z,1.40
2022-08-05T17:55:38.449Z,1.30
2022-08-05T17:58:11.215Z,2.20
2022-08-05T18:00:45.307Z,1.20
2022-08-05T18:03:33.223Z,1.35
2022-08-05T18:06:11.915Z,1.30
2022-08-05T18:08:46.220Z,1.00
2022-08-05T18:11:23.876Z,1.40
2022-08-05T18:13:59.701Z,1.02
2022-08-05T18:16:28.136Z,1.23
2022-08-05T18:18:56.163Z,1.23
2022-08-05T18:21:28.235Z,1.20
2022-08-05T18:24:14.953Z,1.20
2022-08-05T18:26:43.774Z,1.23
2022-08-05T18:29:12.060Z,1.42
2022-08-05T18:31:45.010Z,1.60
2022-08-05T18:34:13.512Z,1.20
2022-08-05T18:36:44.229Z,1.38
2022-08-05T18:39:42.591Z,2.28
2022-08-05T18:42:05.016Z,1.45
2022-08-05T18:44:48.933Z,1.40
2022-08-05T18:47:19.914Z,1.40
2022-08-05T18:50:10.707Z,1.48
2022-08-05T18:52:51.006Z,1.70
2022-08-05T18:55:21.495Z,1.75
2022-08-05T18:57:53.902Z,1.60
2022-08-05T19:00:28.395Z,1.65
2022-08-05T19:03:04.021Z,1.80
2022-08-05T19:06:12.177Z,1.33
2022-08-05T19:08:30.601Z,1.70
2022-08-05T19:11:04.857Z,1.60
2022-08-05T19:13:35.648Z,1.98
2022-08-05T19:16:04.111Z,1.85
2022-08-05T19:18:32.208Z,2.55
2022-08-05T19:21:00.513Z,1.63
2022-08-05T19:24:06.877Z,1.75
2022-08-05T19:26:19.822Z,1.70
2022-08-05T19:28:47.832Z,1.52
2022-08-05T19:31:19.406Z,1.92
2022-08-05T19:33:56.494Z,1.58
2022-08-05T19:36:25.633Z,1.98
2022-08-05T19:38:58.913Z,1.90
2022-08-05T19:42:05.823Z,1.35
2022-08-05T19:44:16.968Z,2.58
2022-08-05T19:46:46.697Z,2.00
2022-08-05T19:49:17.136Z,1.50
2022-08-05T19:52:05.583Z,2.00
2022-08-05T19:54:37.049Z,1.63
2022-08-05T19:57:09.415Z,2.08
2022-08-05T20:00:00.766Z,1.90
2022-08-05T20:02:31.392Z,1.63
2022-08-05T20:05:00.182Z,2.00
2022-08-05T20:07:47.212Z,1.65
2022-08-05T20:10:22.300Z,1.90
2022-08-05T20:12:52.448Z,1.70
2022-08-05T20:15:23.129Z,1.90
2022-08-05T20:18:33.132Z,2.00
2022-08-05T20:20:59.982Z,1.70
2022-08-05T20:23:39.397Z,1.58
2022-08-05T20:26:19.645Z,1.73
2022-08-05T20:28:50.277Z,1.30
2022-08-05T20:31:21.862Z,1.55
2022-08-05T20:33:57.051Z,1.70
2022-08-05T20:36:25.683Z,1.20
2022-08-05T20:38:58.061Z,1.50
2022-08-05T20:41:43.307Z,1.35
2022-08-05T20:44:18.831Z,1.40
2022-08-05T20:46:57.122Z,1.50
2022-08-05T20:49:26.165Z,1.30
2022-08-05T20:51:54.757Z,1.20
2022-08-05T20:54:22.972Z,1.67
2022-08-05T20:56:54.319Z,1.23
2022-08-05T20:59:26.525Z,1.08
2022-08-05T21:01:57.937Z,1.40
2022-08-05T21:04:27.087Z,1.08
2022-08-05T21:06:55.767Z,1.50
2022-08-05T21:09:24.051Z,1.20
2022-08-05T21:12:10.353Z,1.33
2022-08-05T21:14:41.189Z,1.40
2022-08-05T21:17:11.597Z,1.60
2022-08-05T21:19:47.107Z,1.50
2022-08-05T21:22:23.490Z,1.73
2022-08-05T21:24:54.174Z,1.48
2022-08-05T21:27:25.019Z,1.27
2022-08-05T21:29:56.803Z,1.63
2022-08-05T21:32:27.140Z,1.40
2022-08-05T21:35:16.748Z,1.42
2022-08-05T21:37:53.082Z,1.50
2022-08-05T21:40:23.315Z,1.38
2022-08-05T21:42:53.471Z,1.52
2022-08-05T21:45:24.295Z,1.60
2022-08-05T21:47:56.825Z,1.60
2022-08-05T21:50:26.178Z,1.27
2022-08-05T21:52:58.762Z,1.52
2022-08-05T21:56:04.269Z,2.00
2022-08-05T21:58:20.590Z,1.55
2022-08-05T22:01:00.802Z,1.40
2022-08-05T22:03:49.016Z,1.70
2022-08-05T22:06:23.142Z,1.45
2022-08-05T22:09:14.557Z,1.50
2022-08-05T22:11:46.698Z,1.73
2022-08-05T22:14:34.517Z,1.60
2022-08-05T22:17:07.604Z,1.83
2022-08-05T22:20:03.033Z,1.70
2022-08-05T22:22:28.151Z,1.30
2022-08-05T22:25:20.955Z,1.67
2022-08-05T22:28:10.181Z,1.40
2022-08-05T22:30:44.224Z,1.67
2022-08-05T22:33:58.343Z,1.48
2022-08-05T22:36:15.427Z,1.48
2022-08-05T22:38:48.284Z,1.73
2022-08-05T22:42:04.179Z,1.60
2022-08-05T22:44:08.264Z,1.48
2022-08-05T22:46:40.087Z,1.42
2022-08-05T22:49:12.132Z,1.50
2022-08-05T22:52:04.395Z,1.40
2022-08-05T22:54:34.958Z,1.50
2022-08-05T22:57:03.368Z,1.60
2022-08-05T22:59:47.407Z,1.67
2022-08-05T23:02:29.025Z,1.50
2022-08-05T23:05:01.813Z,1.70
2022-08-05T23:07:33.060Z,1.60
2022-08-05T23:10:14.217Z,2.00
2022-08-05T23:12:43.104Z,1.98
2022-08-05T23:15:13.131Z,1.95
2022-08-05T23:18:00.531Z,1.20
2022-08-05T23:20:31.212Z,1.20
2022-08-05T23:23:00.453Z,1.48
2022-08-05T23:25:52.004Z,1.30
2022-08-05T23:28:19.839Z,1.35
2022-08-05T23:30:54.076Z,1.90
2022-08-05T23:34:03.200Z,1.52
2022-08-05T23:36:13.976Z,1.13
2022-08-05T23:38:43.496Z,1.40
2022-08-05T23:41:12.414Z,1.60
2022-08-05T23:44:04.708Z,1.73
2022-08-05T23:46:29.725Z,1.77
2022-08-05T23:49:00.371Z,1.80
2022-08-05T23:51:52.422Z,2.33
2022-08-05T23:54:25.457Z,1.52
2022-08-05T23:56:58.225Z,1.98
